Time,TemperatureF,DewpointF,PressureIn,WindDirection,WindDirectionDegrees,WindSpeedMPH,WindSpeedGustMPH,Humidity,HourlyPrecipIn,Conditions,Clouds,dailyrainin,SoftwareType,DateUTC
2013-01-19 00:01:00,66.6,59.9,31.17,NNW,340,0.0,3.0,79,0.00,,,0.00,Wunderground v.1.15,2013-01-19 05:01:00,
2013-01-19 00:04:00,66.6,59.9,31.17,NNE,29,1.0,3.0,79,0.00,,,0.00,Wunderground v.1.15,2013-01-19 05:04:00,
2013-01-19 00:10:00,66.7,60.0,31.17,NNE,29,1.0,3.0,79,0.00,,,0.00,Wunderground v.1.15,2013-01-19 05:10:00,
2013-01-19 00:12:00,66.7,60.0,31.17,NNE,29,1.0,3.0,79,0.00,,,0.00,Wunderground v.1.15,2013-01-19 05:12:00,
2013-01-19 00:17:00,66.7,60.0,31.17,NNE,29,0.0,3.0,79,0.00,,,0.00,Wunderground v.1.15,2013-01-19 05:17:00,
2013-01-19 00:23:00,66.7,60.3,31.16,NNE,29,0.0,3.0,80,0.00,,,0.00,Wunderground v.1.15,2013-01-19 05:23:00,
2013-01-19 00:28:00,66.7,60.3,31.16,NNE,29,0.0,3.0,80,0.00,,,0.00,Wunderground v.1.15,2013-01-19 05:28:00,
2013-01-19 00:34:00,66.8,60.8,31.17,NNE,29,0.0,3.0,81,0.00,,,0.00,Wunderground v.1.15,2013-01-19 05:34:00,
2013-01-19 00:39:00,66.8,60.8,31.17,NNE,29,0.0,3.0,81,0.00,,,0.00,Wunderground v.1.15,2013-01-19 05:39:00,
2013-01-19 00:45:00,66.8,60.4,31.17,NE,40,0.0,3.0,80,0.00,,,0.00,Wunderground v.1.15,2013-01-19 05:45:00,
2013-01-19 00:51:00,66.8,60.8,31.17,NNW,342,0.0,3.0,81,0.00,,,0.00,Wunderground v.1.15,2013-01-19 05:51:00,
2013-01-19 00:56:00,66.8,60.8,31.16,NNW,342,0.0,3.0,81,0.00,,,0.00,Wunderground v.1.15,2013-01-19 05:56:00,
2013-01-19 01:02:00,66.8,60.8,31.16,NNW,342,0.0,3.0,81,0.00,,,0.00,Wunderground v.1.15,2013-01-19 06:02:00,
2013-01-19 01:08:00,66.8,60.8,31.16,NNW,342,0.0,3.0,81,0.00,,,0.00,Wunderground v.1.15,2013-01-19 06:08:00,
2013-01-19 01:14:00,66.8,61.1,31.16,NNW,342,0.0,3.0,82,0.00,,,0.00,Wunderground v.1.15,2013-01-19 06:14:00,
2013-01-19 01:19:00,66.6,60.9,31.15,North,1,0.0,3.0,82,0.00,,,0.00,Wunderground v.1.15,2013-01-19 06:19:00,
2013-01-19 01:25:00,66.5,60.8,31.15,North,9,0.0,3.0,82,0.00,,,0.00,Wunderground v.1.15,2013-01-19 06:25:00,
2013-01-19 01:30:00,66.4,60.7,31.15,North,7,1.0,3.0,82,0.00,,,0.00,Wunderground v.1.15,2013-01-19 06:30:00,
2013-01-19 01:36:00,66.5,61.2,31.15,NNE,31,1.0,3.0,83,0.00,,,0.00,Wunderground v.1.15,2013-01-19 06:36:00,
2013-01-19 01:41:00,66.4,61.4,31.15,NNE,20,1.0,2.0,84,0.00,,,0.00,Wunderground v.1.15,2013-01-19 06:41:00,
2013-01-19 01:47:00,66.3,61.3,31.15,NNE,22,1.0,3.0,84,0.00,,,0.00,Wunderground v.1.15,2013-01-19 06:47:00,
2013-01-19 01:53:00,66.3,61.3,31.14,NNW,341,1.0,3.0,84,0.00,,,0.00,Wunderground v.1.15,2013-01-19 06:53:00,
2013-01-19 01:58:00,66.3,61.0,31.14,NNE,23,1.0,3.0,83,0.00,,,0.00,Wunderground v.1.15,2013-01-19 06:58:00,
2013-01-19 02:04:00,66.5,61.5,31.14,NE,49,0.0,3.0,84,0.00,,,0.00,Wunderground v.1.15,2013-01-19 07:04:00,
2013-01-19 02:10:00,66.5,61.5,31.14,North,360,0.0,3.0,84,0.00,,,0.00,Wunderground v.1.15,2013-01-19 07:10:00,
2013-01-19 02:16:00,66.5,61.2,31.14,NNE,18,0.0,3.0,83,0.00,,,0.00,Wunderground v.1.15,2013-01-19 07:16:00,
2013-01-19 02:22:00,66.5,61.2,31.14,NNE,18,0.0,3.0,83,0.00,,,0.00,Wunderground v.1.15,2013-01-19 07:22:00,
2013-01-19 02:27:00,66.6,61.3,31.14,NNE,18,0.0,3.0,83,0.00,,,0.00,Wunderground v.1.15,2013-01-19 07:27:00,
2013-01-19 02:33:00,66.7,61.4,31.14,NNW,330,0.0,3.0,83,0.00,,,0.00,Wunderground v.1.15,2013-01-19 07:33:00,
2013-01-19 02:38:00,66.7,61.4,31.14,NNW,332,0.0,3.0,83,0.00,,,0.00,Wunderground v.1.15,2013-01-19 07:38:00,
2013-01-19 02:44:00,66.6,60.9,31.13,NW,310,0.0,3.0,82,0.00,,,0.00,Wunderground v.1.15,2013-01-19 07:44:00,
2013-01-19 02:50:00,66.6,60.9,31.13,NW,310,0.0,3.0,82,0.00,,,0.00,Wunderground v.1.15,2013-01-19 07:50:00,
2013-01-19 02:56:00,66.6,60.9,31.13,NW,314,0.0,3.0,82,0.00,,,0.00,Wunderground v.1.15,2013-01-19 07:56:00,
2013-01-19 03:01:00,66.7,61.4,31.13,NW,316,0.0,3.0,83,0.00,,,0.00,Wunderground v.1.15,2013-01-19 08:01:00,
2013-01-19 03:06:00,66.7,61.0,31.13,NW,319,0.0,3.0,82,0.00,,,0.00,Wunderground v.1.15,2013-01-19 08:06:00,
2013-01-19 03:12:00,66.7,61.4,31.13,NW,314,0.0,3.0,83,0.00,,,0.00,Wunderground v.1.15,2013-01-19 08:12:00,
2013-01-19 03:18:00,66.7,61.0,31.13,NNW,327,0.0,3.0,82,0.00,,,0.00,Wunderground v.1.15,2013-01-19 08:18:00,
2013-01-19 03:24:00,66.7,61.0,31.13,NW,316,0.0,3.0,82,0.00,,,0.00,Wunderground v.1.15,2013-01-19 08:24:00,
2013-01-19 03:29:00,66.9,61.6,31.13,WNW,302,0.0,3.0,83,0.00,,,0.00,Wunderground v.1.15,2013-01-19 08:29:00,
2013-01-19 03:34:00,67.0,62.3,31.13,NW,321,0.0,3.0,85,0.00,,,0.00,Wunderground v.1.15,2013-01-19 08:34:00,
2013-01-19 03:40:00,67.0,62.7,31.13,NW,312,1.0,1.0,86,0.00,,,0.00,Wunderground v.1.15,2013-01-19 08:40:00,
2013-01-19 03:46:00,66.9,62.9,31.13,NNE,18,0.0,3.0,87,0.00,,,0.00,Wunderground v.1.15,2013-01-19 08:46:00,
2013-01-19 03:51:00,66.7,62.7,31.12,NNE,15,0.0,3.0,87,0.00,,,0.00,Wunderground v.1.15,2013-01-19 08:51:00,
2013-01-19 03:57:00,66.5,62.5,31.12,NW,304,0.0,3.0,87,0.00,,,0.00,Wunderground v.1.15,2013-01-19 08:57:00,
2013-01-19 04:03:00,66.4,62.4,31.12,North,358,0.0,3.0,87,0.00,,,0.00,Wunderground v.1.15,2013-01-19 09:03:00,
2013-01-19 04:09:00,66.4,62.4,31.12,NNW,333,0.0,3.0,87,0.00,,,0.00,Wunderground v.1.15,2013-01-19 09:09:00,
2013-01-19 04:15:00,66.4,62.4,31.12,North,5,0.0,3.0,87,0.00,,,0.00,Wunderground v.1.15,2013-01-19 09:15:00,
2013-01-19 04:21:00,66.4,62.7,31.12,NNE,15,2.0,3.0,88,0.00,,,0.00,Wunderground v.1.15,2013-01-19 09:21:00,
2013-01-19 04:27:00,66.3,62.6,31.12,NNW,332,2.0,3.0,88,0.00,,,0.00,Wunderground v.1.15,2013-01-19 09:27:00,
2013-01-19 04:33:00,66.2,62.5,31.12,NW,311,2.0,3.0,88,0.00,,,0.00,Wunderground v.1.15,2013-01-19 09:33:00,
2013-01-19 04:38:00,66.2,62.9,31.12,NNE,18,2.0,4.0,89,0.00,,,0.00,Wunderground v.1.15,2013-01-19 09:38:00,
2013-01-19 04:44:00,66.1,62.8,31.12,NNE,13,2.0,5.0,89,0.00,,,0.00,Wunderground v.1.15,2013-01-19 09:44:00,
2013-01-19 04:50:00,66.0,62.7,31.13,NNE,14,2.0,3.0,89,0.00,,,0.00,Wunderground v.1.15,2013-01-19 09:50:00,
2013-01-19 04:57:00,65.9,62.2,31.13,NNE,31,2.0,3.0,88,0.00,,,0.00,Wunderground v.1.15,2013-01-19 09:57:00,
2013-01-19 05:02:00,66.0,62.3,31.13,NW,308,2.0,3.0,88,0.00,,,0.00,Wunderground v.1.15,2013-01-19 10:02:00,
2013-01-19 05:08:00,66.1,62.4,31.13,NNE,15,2.0,3.0,88,0.00,,,0.00,Wunderground v.1.15,2013-01-19 10:08:00,
2013-01-19 05:14:00,66.2,62.5,31.13,NNW,328,1.0,3.0,88,0.00,,,0.00,Wunderground v.1.15,2013-01-19 10:14:00,
2013-01-19 05:20:00,66.1,62.4,31.13,North,353,2.0,3.0,88,0.00,,,0.00,Wunderground v.1.15,2013-01-19 10:20:00,
2013-01-19 05:25:00,66.3,63.0,31.13,NNE,27,2.0,6.0,89,0.00,,,0.00,Wunderground v.1.15,2013-01-19 10:25:00,
2013-01-19 05:31:00,66.5,63.5,31.14,NNE,22,2.0,3.0,90,0.00,,,0.00,Wunderground v.1.15,2013-01-19 10:31:00,
2013-01-19 05:37:00,66.4,63.7,31.13,NNE,30,3.0,3.0,91,0.00,,,0.00,Wunderground v.1.15,2013-01-19 10:37:00,
2013-01-19 05:42:00,66.3,63.6,31.13,NNE,29,3.0,4.0,91,0.00,,,0.00,Wunderground v.1.15,2013-01-19 10:42:00,
2013-01-19 05:48:00,66.1,63.4,31.14,North,4,2.0,6.0,91,0.00,,,0.00,Wunderground v.1.15,2013-01-19 10:48:00,
2013-01-19 05:54:00,65.9,63.5,31.14,North,8,2.0,3.0,92,0.00,,,0.00,Wunderground v.1.15,2013-01-19 10:54:00,
2013-01-19 06:00:00,65.9,63.5,31.14,North,354,2.0,3.0,92,0.00,,,0.00,Wunderground v.1.15,2013-01-19 11:00:00,
2013-01-19 06:05:00,65.8,63.4,31.14,NE,46,2.0,4.0,92,0.00,,,0.00,Wunderground v.1.15,2013-01-19 11:05:00,
2013-01-19 06:11:00,65.8,63.4,31.14,NNW,343,2.0,3.0,92,0.00,,,0.00,Wunderground v.1.15,2013-01-19 11:11:00,
2013-01-19 07:48:00,65.6,63.5,31.16,NNE,33,1.0,3.0,93,0.00,,,0.00,Wunderground v.1.15,2013-01-19 12:48:00,
2013-01-19 07:49:00,65.7,63.6,31.16,NNW,328,1.0,3.0,93,0.00,,,0.00,Wunderground v.1.15,2013-01-19 12:49:00,
2013-01-19 07:50:00,65.7,63.6,31.16,NNW,327,1.0,1.0,93,0.00,,,0.00,Wunderground v.1.15,2013-01-19 12:50:00,
2013-01-19 07:55:00,66.1,64.0,31.16,WNW,293,0.0,3.0,93,0.00,,,0.00,Wunderground v.1.15,2013-01-19 12:55:00,
2013-01-19 07:57:00,66.1,63.7,31.16,NNE,18,0.0,4.0,92,0.00,,,0.00,Wunderground v.1.15,2013-01-19 12:57:00,
2013-01-19 08:02:00,66.2,63.5,31.16,North,349,2.0,5.0,91,0.00,,,0.00,Wunderground v.1.15,2013-01-19 13:02:00,
2013-01-19 08:08:00,66.4,63.7,31.17,NNE,25,3.0,5.0,91,0.00,,,0.00,Wunderground v.1.15,2013-01-19 13:08:00,
2013-01-19 08:13:00,66.4,63.7,31.17,NNE,14,3.0,7.0,91,0.00,,,0.00,Wunderground v.1.15,2013-01-19 13:13:00,
2013-01-19 08:19:00,66.5,63.5,31.17,NNE,20,4.0,7.0,90,0.00,,,0.00,Wunderground v.1.15,2013-01-19 13:19:00,
2013-01-19 08:25:00,66.5,63.5,31.18,North,349,4.0,5.0,90,0.00,,,0.00,Wunderground v.1.15,2013-01-19 13:25:00,
2013-01-19 08:30:00,66.2,63.2,31.18,North,9,4.0,4.0,90,0.00,,,0.00,Wunderground v.1.15,2013-01-19 13:30:00,
2013-01-19 08:36:00,66.0,63.0,31.18,NNE,18,4.0,6.0,90,0.00,,,0.00,Wunderground v.1.15,2013-01-19 13:36:00,
2013-01-19 08:42:00,65.8,63.1,31.18,North,356,3.0,7.0,91,0.00,,,0.00,Wunderground v.1.15,2013-01-19 13:42:00,
2013-01-19 08:48:00,65.8,63.1,31.18,NNW,340,3.0,7.0,91,0.00,,,0.00,Wunderground v.1.15,2013-01-19 13:48:00,
2013-01-19 08:54:00,65.8,63.1,31.19,NNW,343,3.0,5.0,91,0.00,,,0.00,Wunderground v.1.15,2013-01-19 13:54:00,
2013-01-19 09:00:00,66.0,63.6,31.19,NNE,18,3.0,3.0,92,0.00,,,0.00,Wunderground v.1.15,2013-01-19 14:00:00,
2013-01-19 09:06:00,66.4,63.7,31.19,North,354,3.0,6.0,91,0.00,,,0.00,Wunderground v.1.15,2013-01-19 14:06:00,
2013-01-19 09:11:00,66.8,64.1,31.19,NNW,342,4.0,4.0,91,0.00,,,0.00,Wunderground v.1.15,2013-01-19 14:11:00,
2013-01-19 09:16:00,67.0,64.0,31.19,NNE,25,4.0,6.0,90,0.00,,,0.00,Wunderground v.1.15,2013-01-19 14:16:00,
2013-01-19 09:21:00,67.4,64.4,31.19,North,351,3.0,6.0,90,0.00,,,0.00,Wunderground v.1.15,2013-01-19 14:21:00,
2013-01-19 09:27:00,68.0,64.6,31.19,NNW,327,3.0,8.0,89,0.00,,,0.00,Wunderground v.1.15,2013-01-19 14:27:00,
2013-01-19 09:33:00,68.0,64.3,31.19,NW,325,3.0,4.0,88,0.00,,,0.00,Wunderground v.1.15,2013-01-19 14:33:00,
2013-01-19 09:39:00,67.7,64.0,31.19,NE,47,2.0,4.0,88,0.00,,,0.00,Wunderground v.1.15,2013-01-19 14:39:00,
2013-01-19 09:45:00,67.3,63.9,31.19,NNW,327,3.0,3.0,89,0.00,,,0.00,Wunderground v.1.15,2013-01-19 14:45:00,
2013-01-19 09:50:00,67.2,63.8,31.19,North,353,3.0,4.0,89,0.00,,,0.00,Wunderground v.1.15,2013-01-19 14:50:00,
2013-01-19 09:56:00,67.1,64.1,31.19,North,6,4.0,6.0,90,0.00,,,0.00,Wunderground v.1.15,2013-01-19 14:56:00,
2013-01-19 10:02:00,67.4,64.0,31.20,NE,37,3.0,6.0,89,0.00,,,0.00,Wunderground v.1.15,2013-01-19 15:02:00,
2013-01-19 10:08:00,68.0,65.0,31.20,North,4,3.0,6.0,90,0.00,,,0.00,Wunderground v.1.15,2013-01-19 15:08:00,
2013-01-19 10:14:00,69.0,65.3,31.20,NE,35,2.0,4.0,88,0.00,,,0.00,Wunderground v.1.15,2013-01-19 15:14:00,
2013-01-19 10:20:00,69.2,65.2,31.20,North,349,3.0,3.0,87,0.00,,,0.00,Wunderground v.1.15,2013-01-19 15:20:00,
2013-01-19 10:27:00,69.0,64.6,31.20,NNW,343,3.0,4.0,86,0.00,,,0.00,Wunderground v.1.15,2013-01-19 15:27:00,
2013-01-19 10:33:00,69.0,65.0,31.20,NNE,18,2.0,4.0,87,0.00,,,0.00,Wunderground v.1.15,2013-01-19 15:33:00,
2013-01-19 10:39:00,69.1,65.1,31.20,NNE,25,3.0,4.0,87,0.00,,,0.00,Wunderground v.1.15,2013-01-19 15:39:00,
2013-01-19 10:44:00,69.3,65.3,31.19,North,6,3.0,5.0,87,0.00,,,0.00,Wunderground v.1.15,2013-01-19 15:44:00,
2013-01-19 10:49:00,69.9,65.9,31.19,NNE,18,2.0,5.0,87,0.00,,,0.00,Wunderground v.1.15,2013-01-19 15:49:00,
2013-01-19 10:55:00,70.9,66.2,31.19,North,7,2.0,7.0,85,0.00,,,0.00,Wunderground v.1.15,2013-01-19 15:55:00,
2013-01-19 11:01:00,71.1,65.7,31.18,NNW,337,2.0,4.0,83,0.00,,,0.00,Wunderground v.1.15,2013-01-19 16:01:00,
2013-01-19 11:08:00,70.9,65.1,31.18,NNE,22,2.0,5.0,82,0.00,,,0.00,Wunderground v.1.15,2013-01-19 16:08:00,
2013-01-19 11:13:00,70.9,65.5,31.18,NW,316,2.0,4.0,83,0.00,,,0.00,Wunderground v.1.15,2013-01-19 16:13:00,
2013-01-19 11:19:00,71.1,65.7,31.17,WNW,296,2.0,4.0,83,0.00,,,0.00,Wunderground v.1.15,2013-01-19 16:19:00,
2013-01-19 11:24:00,71.1,65.7,31.17,North,354,2.0,3.0,83,0.00,,,0.00,Wunderground v.1.15,2013-01-19 16:24:00,
2013-01-19 11:30:00,71.1,66.0,31.17,NE,37,2.0,2.0,84,0.00,,,0.00,Wunderground v.1.15,2013-01-19 16:30:00,
2013-01-19 11:36:00,71.4,65.6,31.17,WNW,298,2.0,4.0,82,0.00,,,0.00,Wunderground v.1.15,2013-01-19 16:36:00,
2013-01-19 11:41:00,71.5,65.4,31.16,NW,316,2.0,3.0,81,0.00,,,0.00,Wunderground v.1.15,2013-01-19 16:41:00,
2013-01-19 11:48:00,72.3,66.5,31.16,NNE,22,2.0,3.0,82,0.00,,,0.00,Wunderground v.1.15,2013-01-19 16:48:00,
2013-01-19 11:54:00,72.4,65.9,31.16,NNE,29,2.0,4.0,80,0.00,,,0.00,Wunderground v.1.15,2013-01-19 16:54:00,
2013-01-19 11:59:00,72.8,66.3,31.15,NNW,332,2.0,4.0,80,0.00,,,0.00,Wunderground v.1.15,2013-01-19 16:59:00,
2013-01-19 12:05:00,73.3,66.4,31.15,North,349,1.0,3.0,79,0.00,,,0.00,Wunderground v.1.15,2013-01-19 17:05:00,
2013-01-19 12:12:00,72.9,66.4,31.15,NE,55,2.0,3.0,80,0.00,,,0.00,Wunderground v.1.15,2013-01-19 17:12:00,
2013-01-19 12:18:00,72.7,65.8,31.15,North,4,2.0,4.0,79,0.00,,,0.00,Wunderground v.1.15,2013-01-19 17:18:00,
2013-01-19 12:26:00,72.8,65.9,31.14,NNW,342,3.0,4.0,79,0.00,,,0.00,Wunderground v.1.15,2013-01-19 17:26:00,
2013-01-19 12:32:00,73.3,66.0,31.13,NE,47,2.0,4.0,78,0.00,,,0.00,Wunderground v.1.15,2013-01-19 17:32:00,
2013-01-19 12:37:00,73.0,65.7,31.13,North,358,2.0,4.0,78,0.00,,,0.00,Wunderground v.1.15,2013-01-19 17:37:00,
2013-01-19 12:42:00,73.3,66.0,31.13,NW,322,2.0,3.0,78,0.00,,,0.00,Wunderground v.1.15,2013-01-19 17:42:00,
2013-01-19 12:47:00,73.3,66.0,31.13,NNW,327,1.0,3.0,78,0.00,,,0.00,Wunderground v.1.15,2013-01-19 17:47:00,
2013-01-19 12:53:00,73.3,66.0,31.12,NW,309,0.0,3.0,78,0.00,,,0.00,Wunderground v.1.15,2013-01-19 17:53:00,
2013-01-19 12:58:00,73.3,66.4,31.12,WNW,298,0.0,3.0,79,0.00,,,0.00,Wunderground v.1.15,2013-01-19 17:58:00,
2013-01-19 13:05:00,73.2,65.9,31.12,NNE,22,0.0,3.0,78,0.00,,,0.00,Wunderground v.1.15,2013-01-19 18:05:00,
2013-01-19 13:12:00,73.1,65.8,31.11,NNE,13,0.0,3.0,78,0.00,,,0.00,Wunderground v.1.15,2013-01-19 18:12:00,
2013-01-19 13:18:00,73.1,66.2,31.11,WNW,299,0.0,3.0,79,0.00,,,0.00,Wunderground v.1.15,2013-01-19 18:18:00,
2013-01-19 13:23:00,73.1,66.2,31.10,NW,321,0.0,3.0,79,0.00,,,0.00,Wunderground v.1.15,2013-01-19 18:23:00,
2013-01-19 13:29:00,73.2,66.7,31.10,NNW,336,0.0,3.0,80,0.00,,,0.00,Wunderground v.1.15,2013-01-19 18:29:00,
2013-01-19 13:34:00,73.2,66.3,31.10,NNW,328,0.0,3.0,79,0.00,,,0.00,Wunderground v.1.15,2013-01-19 18:34:00,
2013-01-19 13:40:00,73.5,66.2,31.09,North,6,0.0,3.0,78,0.00,,,0.00,Wunderground v.1.15,2013-01-19 18:40:00,
2013-01-19 13:45:00,73.7,66.0,31.09,North,9,1.0,4.0,77,0.00,,,0.00,Wunderground v.1.15,2013-01-19 18:45:00,
2013-01-19 13:50:00,73.3,65.7,31.08,NNE,22,2.0,2.0,77,0.00,,,0.00,Wunderground v.1.15,2013-01-19 18:50:00,
2013-01-19 13:59:00,74.4,66.0,31.08,North,358,1.0,3.0,75,0.00,,,0.00,Wunderground v.1.15,2013-01-19 18:59:00,
2013-01-19 14:04:00,74.3,65.5,31.08,NNE,32,1.0,4.0,74,0.00,,,0.00,Wunderground v.1.15,2013-01-19 19:04:00,
2013-01-19 14:10:00,74.0,66.0,31.08,North,359,2.0,3.0,76,0.00,,,0.00,Wunderground v.1.15,2013-01-19 19:10:00,
2013-01-19 14:16:00,74.5,66.1,31.07,NE,41,1.0,3.0,75,0.00,,,0.00,Wunderground v.1.15,2013-01-19 19:16:00,
2013-01-19 14:21:00,75.1,65.1,31.07,NNW,332,1.0,3.0,71,0.00,,,0.00,Wunderground v.1.15,2013-01-19 19:21:00,
2013-01-19 14:26:00,75.1,65.5,31.07,ESE,105,2.0,3.0,72,0.00,,,0.00,Wunderground v.1.15,2013-01-19 19:26:00,
2013-01-19 14:32:00,75.7,65.6,31.07,NNE,19,2.0,3.0,71,0.00,,,0.00,Wunderground v.1.15,2013-01-19 19:32:00,
2013-01-19 14:37:00,75.9,65.8,31.07,North,5,1.0,3.0,71,0.00,,,0.00,Wunderground v.1.15,2013-01-19 19:37:00,
2013-01-19 14:43:00,75.9,66.2,31.07,NNW,345,1.0,3.0,72,0.00,,,0.00,Wunderground v.1.15,2013-01-19 19:43:00,
2013-01-19 14:48:00,75.9,65.8,31.07,North,1,1.0,3.0,71,0.00,,,0.00,Wunderground v.1.15,2013-01-19 19:48:00,
2013-01-19 14:55:00,75.9,66.2,31.06,NNW,340,1.0,3.0,72,0.00,,,0.00,Wunderground v.1.15,2013-01-19 19:55:00,
2013-01-19 15:02:00,76.6,66.5,31.06,NNW,328,0.0,3.0,71,0.00,,,0.00,Wunderground v.1.15,2013-01-19 20:02:00,
2013-01-19 15:08:00,76.4,66.3,31.06,NNE,33,0.0,3.0,71,0.00,,,0.00,Wunderground v.1.15,2013-01-19 20:08:00,
2013-01-19 15:13:00,75.7,66.0,31.06,North,11,1.0,4.0,72,0.00,,,0.00,Wunderground v.1.15,2013-01-19 20:13:00,
2013-01-19 15:20:00,74.8,66.3,31.06,NNE,23,2.0,3.0,75,0.00,,,0.00,Wunderground v.1.15,2013-01-19 20:20:00,
2013-01-19 15:27:00,74.4,66.0,31.06,NNE,30,2.0,4.0,75,0.00,,,0.00,Wunderground v.1.15,2013-01-19 20:27:00,
2013-01-19 15:33:00,74.4,66.0,31.06,NNE,24,2.0,3.0,75,0.00,,,0.00,Wunderground v.1.15,2013-01-19 20:33:00,
2013-01-19 15:39:00,74.7,65.9,31.06,NNE,23,1.0,3.0,74,0.00,,,0.00,Wunderground v.1.15,2013-01-19 20:39:00,
2013-01-19 15:44:00,74.8,66.3,31.06,NNE,31,1.0,3.0,75,0.00,,,0.00,Wunderground v.1.15,2013-01-19 20:44:00,
2013-01-19 15:50:00,74.8,66.3,31.06,NW,325,1.0,3.0,75,0.00,,,0.00,Wunderground v.1.15,2013-01-19 20:50:00,
2013-01-19 15:55:00,75.0,65.8,31.06,ENE,61,1.0,3.0,73,0.00,,,0.00,Wunderground v.1.15,2013-01-19 20:55:00,
2013-01-19 16:02:00,75.5,65.4,31.06,NNE,20,1.0,3.0,71,0.00,,,0.00,Wunderground v.1.15,2013-01-19 21:02:00,
2013-01-19 16:07:00,76.1,66.0,31.06,NNE,25,1.0,3.0,71,0.00,,,0.00,Wunderground v.1.15,2013-01-19 21:07:00,
2013-01-19 16:14:00,76.8,66.3,31.06,NNW,336,1.0,3.0,70,0.00,,,0.00,Wunderground v.1.15,2013-01-19 21:14:00,
2013-01-19 16:19:00,77.1,67.4,31.06,ESE,106,1.0,3.0,72,0.00,,,0.00,Wunderground v.1.15,2013-01-19 21:19:00,
2013-01-19 16:25:00,76.9,67.2,31.07,North,354,1.0,3.0,72,0.00,,,0.00,Wunderground v.1.15,2013-01-19 21:25:00,
2013-01-19 16:32:00,76.1,66.8,31.07,NNE,18,1.0,3.0,73,0.00,,,0.00,Wunderground v.1.15,2013-01-19 21:32:00,
2013-01-19 16:39:00,76.1,66.8,31.07,NNE,32,1.0,3.0,73,0.00,,,0.00,Wunderground v.1.15,2013-01-19 21:39:00,
2013-01-19 16:46:00,75.7,66.8,31.06,North,358,1.0,3.0,74,0.00,,,0.00,Wunderground v.1.15,2013-01-19 21:46:00,
2013-01-19 16:51:00,75.6,66.7,31.07,NNW,347,1.0,4.0,74,0.00,,,0.00,Wunderground v.1.15,2013-01-19 21:51:00,
2013-01-19 16:57:00,75.3,66.8,31.07,ENE,58,1.0,4.0,75,0.00,,,0.00,Wunderground v.1.15,2013-01-19 21:57:00,
2013-01-19 17:02:00,75.0,66.5,31.07,East,101,1.0,3.0,75,0.00,,,0.00,Wunderground v.1.15,2013-01-19 22:02:00,
2013-01-19 17:09:00,74.9,66.4,31.07,East,86,2.0,3.0,75,0.00,,,0.00,Wunderground v.1.15,2013-01-19 22:09:00,
2013-01-19 17:14:00,74.6,67.3,31.06,East,83,2.0,4.0,78,0.00,,,0.00,Wunderground v.1.15,2013-01-19 22:14:00,
2013-01-19 17:19:00,74.4,67.8,31.07,East,96,2.0,4.0,80,0.00,,,0.00,Wunderground v.1.15,2013-01-19 22:19:00,
2013-01-19 17:25:00,74.0,67.8,31.07,East,86,2.0,3.0,81,0.00,,,0.00,Wunderground v.1.15,2013-01-19 22:25:00,
2013-01-19 17:32:00,73.5,67.7,31.07,ESE,119,2.0,3.0,82,0.00,,,0.00,Wunderground v.1.15,2013-01-19 22:32:00,
2013-01-19 17:38:00,73.1,67.6,31.07,East,97,2.0,3.0,83,0.00,,,0.00,Wunderground v.1.15,2013-01-19 22:38:00,
2013-01-19 17:43:00,72.9,67.4,31.07,East,93,2.0,3.0,83,0.00,,,0.00,Wunderground v.1.15,2013-01-19 22:43:00,
2013-01-19 17:49:00,72.5,67.4,31.07,East,89,1.0,3.0,84,0.00,,,0.00,Wunderground v.1.15,2013-01-19 22:49:00,
2013-01-19 17:55:00,72.4,67.3,31.07,East,96,1.0,3.0,84,0.00,,,0.00,Wunderground v.1.15,2013-01-19 22:55:00,
2013-01-19 18:03:00,72.2,67.1,31.08,East,91,0.0,3.0,84,0.00,,,0.00,Wunderground v.1.15,2013-01-19 23:03:00,
2013-01-19 18:09:00,71.9,66.8,31.08,ESE,103,0.0,3.0,84,0.00,,,0.00,Wunderground v.1.15,2013-01-19 23:09:00,
2013-01-19 18:14:00,71.7,66.6,31.08,ESE,102,0.0,3.0,84,0.00,,,0.00,Wunderground v.1.15,2013-01-19 23:14:00,
2013-01-19 18:20:00,71.5,66.8,31.08,East,101,0.0,3.0,85,0.00,,,0.00,Wunderground v.1.15,2013-01-19 23:20:00,
2013-01-19 18:25:00,71.1,66.4,31.08,ESE,102,0.0,3.0,85,0.00,,,0.00,Wunderground v.1.15,2013-01-19 23:25:00,
2013-01-19 18:30:00,70.7,66.3,31.08,East,101,0.0,3.0,86,0.00,,,0.00,Wunderground v.1.15,2013-01-19 23:30:00,
2013-01-19 18:35:00,70.6,66.5,31.09,West,271,0.0,3.0,87,0.00,,,0.00,Wunderground v.1.15,2013-01-19 23:35:00,
2013-01-19 18:41:00,70.5,66.8,31.09,West,271,0.0,3.0,88,0.00,,,0.00,Wunderground v.1.15,2013-01-19 23:41:00,
2013-01-19 18:46:00,70.4,66.7,31.09,West,271,0.0,3.0,88,0.00,,,0.00,Wunderground v.1.15,2013-01-19 23:46:00,
2013-01-19 18:55:00,70.1,66.7,31.10,West,271,0.0,3.0,89,0.00,,,0.00,Wunderground v.1.15,2013-01-19 23:55:00,
2013-01-19 19:02:00,69.9,66.8,31.10,West,271,0.0,3.0,90,0.00,,,0.00,Wunderground v.1.15,2013-01-20 00:02:00,
2013-01-19 19:08:00,69.8,66.7,31.10,West,271,0.0,3.0,90,0.00,,,0.00,Wunderground v.1.15,2013-01-20 00:08:00,
2013-01-19 19:14:00,69.7,66.6,31.10,West,271,0.0,3.0,90,0.00,,,0.00,Wunderground v.1.15,2013-01-20 00:14:00,
2013-01-19 19:20:00,69.7,66.6,31.10,West,271,0.0,3.0,90,0.00,,,0.00,Wunderground v.1.15,2013-01-20 00:20:00,
2013-01-19 19:27:00,69.6,66.9,31.10,West,271,0.0,3.0,91,0.00,,,0.00,Wunderground v.1.15,2013-01-20 00:27:00,
2013-01-19 19:33:00,69.7,67.0,31.11,West,271,0.0,3.0,91,0.00,,,0.00,Wunderground v.1.15,2013-01-20 00:33:00,
2013-01-19 19:40:00,70.0,67.3,31.11,West,271,0.0,3.0,91,0.00,,,0.00,Wunderground v.1.15,2013-01-20 00:40:00,
2013-01-19 19:45:00,70.2,67.4,31.11,West,271,0.0,3.0,91,0.00,,,0.00,Wunderground v.1.15,2013-01-20 00:45:00,
2013-01-19 19:52:00,70.1,67.0,31.11,West,271,0.0,3.0,90,0.00,,,0.00,Wunderground v.1.15,2013-01-20 00:52:00,
2013-01-19 19:58:00,70.0,66.9,31.11,West,271,0.0,3.0,90,0.00,,,0.00,Wunderground v.1.15,2013-01-20 00:58:00,
2013-01-19 20:04:00,69.8,66.7,31.11,West,271,0.0,3.0,90,0.00,,,0.00,Wunderground v.1.15,2013-01-20 01:04:00,
2013-01-19 20:10:00,69.5,66.4,31.11,West,271,0.0,3.0,90,0.00,,,0.00,Wunderground v.1.15,2013-01-20 01:10:00,
2013-01-19 20:15:00,69.4,66.3,31.11,West,271,0.0,3.0,90,0.00,,,0.00,Wunderground v.1.15,2013-01-20 01:15:00,
2013-01-19 20:21:00,69.4,66.7,31.11,West,274,0.0,3.0,91,0.00,,,0.00,Wunderground v.1.15,2013-01-20 01:21:00,
2013-01-19 20:27:00,69.4,66.7,31.11,WNW,285,0.0,3.0,91,0.00,,,0.00,Wunderground v.1.15,2013-01-20 01:27:00,
2013-01-19 20:33:00,69.5,66.8,31.11,WNW,285,0.0,3.0,91,0.00,,,0.00,Wunderground v.1.15,2013-01-20 01:33:00,
2013-01-19 20:38:00,69.5,66.8,31.12,WNW,284,0.0,3.0,91,0.00,,,0.00,Wunderground v.1.15,2013-01-20 01:38:00,
2013-01-19 20:45:00,69.2,66.5,31.11,WNW,284,0.0,3.0,91,0.00,,,0.00,Wunderground v.1.15,2013-01-20 01:45:00,
2013-01-19 20:54:00,69.2,66.8,31.11,NW,308,0.0,3.0,92,0.00,,,0.00,Wunderground v.1.15,2013-01-20 01:54:00,
2013-01-19 20:59:00,69.3,66.9,31.11,NW,309,0.0,3.0,92,0.00,,,0.00,Wunderground v.1.15,2013-01-20 01:59:00,
2013-01-19 21:05:00,69.2,66.8,31.12,NW,309,0.0,3.0,92,0.00,,,0.00,Wunderground v.1.15,2013-01-20 02:05:00,
2013-01-19 21:10:00,69.0,66.6,31.12,NW,309,0.0,3.0,92,0.00,,,0.00,Wunderground v.1.15,2013-01-20 02:10:00,
2013-01-19 21:16:00,68.8,66.4,31.12,NW,309,0.0,3.0,92,0.00,,,0.00,Wunderground v.1.15,2013-01-20 02:16:00,
2013-01-19 21:24:00,68.5,66.1,31.12,NW,309,0.0,3.0,92,0.00,,,0.00,Wunderground v.1.15,2013-01-20 02:24:00,
2013-01-19 21:29:00,68.4,66.3,31.11,NW,309,0.0,3.0,93,0.00,,,0.00,Wunderground v.1.15,2013-01-20 02:29:00,
2013-01-19 21:35:00,68.3,66.2,31.11,NW,309,0.0,3.0,93,0.00,,,0.00,Wunderground v.1.15,2013-01-20 02:35:00,
2013-01-19 21:42:00,68.2,66.1,31.11,NW,309,0.0,3.0,93,0.00,,,0.00,Wunderground v.1.15,2013-01-20 02:42:00,
2013-01-19 21:48:00,68.4,66.3,31.11,NNE,22,0.0,3.0,93,0.00,,,0.00,Wunderground v.1.15,2013-01-20 02:48:00,
2013-01-19 21:54:00,68.4,66.3,31.11,NNE,31,0.0,3.0,93,0.00,,,0.00,Wunderground v.1.15,2013-01-20 02:54:00,
2013-01-19 21:59:00,68.4,66.3,31.10,NNE,32,0.0,3.0,93,0.00,,,0.00,Wunderground v.1.15,2013-01-20 02:59:00,
2013-01-19 22:05:00,68.3,66.2,31.10,NNE,31,0.0,3.0,93,0.00,,,0.00,Wunderground v.1.15,2013-01-20 03:05:00,
2013-01-19 22:10:00,68.3,66.2,31.10,North,354,0.0,3.0,93,0.00,,,0.00,Wunderground v.1.15,2013-01-20 03:10:00,
2013-01-19 22:17:00,68.5,66.7,31.10,ENE,64,0.0,3.0,94,0.00,,,0.00,Wunderground v.1.15,2013-01-20 03:17:00,
2013-01-19 22:23:00,68.5,66.7,31.10,North,353,0.0,3.0,94,0.00,,,0.00,Wunderground v.1.15,2013-01-20 03:23:00,
2013-01-19 22:29:00,68.6,66.8,31.09,NNE,15,0.0,3.0,94,0.00,,,0.00,Wunderground v.1.15,2013-01-20 03:29:00,
2013-01-19 22:34:00,68.6,66.8,31.10,NNE,14,0.0,3.0,94,0.00,,,0.00,Wunderground v.1.15,2013-01-20 03:34:00,
2013-01-19 22:40:00,68.6,66.8,31.10,North,7,0.0,3.0,94,0.00,,,0.00,Wunderground v.1.15,2013-01-20 03:40:00,
2013-01-19 22:45:00,68.7,66.9,31.10,North,353,0.0,3.0,94,0.00,,,0.00,Wunderground v.1.15,2013-01-20 03:45:00,
2013-01-19 22:50:00,68.8,67.0,31.09,North,8,0.0,3.0,94,0.00,,,0.00,Wunderground v.1.15,2013-01-20 03:50:00,
2013-01-19 22:55:00,68.7,66.9,31.09,NNE,27,0.0,3.0,94,0.00,,,0.00,Wunderground v.1.15,2013-01-20 03:55:00,
2013-01-19 23:02:00,68.7,66.9,31.09,North,357,0.0,3.0,94,0.00,,,0.00,Wunderground v.1.15,2013-01-20 04:02:00,
2013-01-19 23:08:00,68.8,67.0,31.09,NNE,30,0.0,3.0,94,0.00,,,0.00,Wunderground v.1.15,2013-01-20 04:08:00,
2013-01-19 23:14:00,68.9,67.1,31.09,NNE,25,0.0,3.0,94,0.00,,,0.00,Wunderground v.1.15,2013-01-20 04:14:00,
2013-01-19 23:20:00,68.9,67.1,31.09,North,7,1.0,1.0,94,0.00,,,0.00,Wunderground v.1.15,2013-01-20 04:20:00,
2013-01-19 23:25:00,69.0,67.2,31.08,North,6,1.0,3.0,94,0.00,,,0.00,Wunderground v.1.15,2013-01-20 04:25:00,
2013-01-19 23:31:00,69.0,67.2,31.08,NNE,26,0.0,3.0,94,0.00,,,0.00,Wunderground v.1.15,2013-01-20 04:31:00,
2013-01-19 23:38:00,68.9,67.1,31.08,NNE,30,0.0,3.0,94,0.00,,,0.00,Wunderground v.1.15,2013-01-20 04:38:00,
2013-01-19 23:44:00,68.8,67.0,31.08,North,4,0.0,3.0,94,0.00,,,0.00,Wunderground v.1.15,2013-01-20 04:44:00,
2013-01-19 23:50:00,68.8,67.0,31.08,NNE,30,0.0,3.0,94,0.00,,,0.00,Wunderground v.1.15,2013-01-20 04:50:00,
2013-01-19 23:55:00,68.8,67.0,31.08,NNE,12,0.0,3.0,94,0.00,,,0.00,Wunderground v.1.15,2013-01-20 04:55:00,